SVA818 OEJN-WIII
Flight info
| Callsign | SVA818 |
|---|---|
| Flight time | N/A |
| Altitude | 33000 |
| Route | EGREP3V/34R EGREP T532 KODIS Y214 RAPMA DCT DEGNO DCT DAPOL/N0490F350 L692 GISKA N569 UMILA L883 REXOD N563 ADKIT/N0483F370 N563 ISVUR A585 PLB G461 BIDAK |
| Aircraft | B77W/H-SDE1E2E3FGHIJ2J3J4J5M1RWXY/LB1D1 |
Departure
| Time | N/A |
|---|---|
| Airport | King Abdulaziz International Airport (OEJN) |
Arrival
| Time | 2026-04-28 07:47 |
|---|---|
| Airport | Soekarno-Hatta International Airport (WIII) |
| Time | Latitude | Longitude | Altitude | Speed | Heading |
|---|---|---|---|---|---|
| 2026-04-28 01:34 | 18.91198 | 66.21285 | 34815 ft | 514 kts | 120° |
| 2026-04-28 01:35 | 18.87795 | 66.27931 | 34816 ft | 514 kts | 120° |
| 2026-04-28 01:35 | 18.84390 | 66.34574 | 34823 ft | 515 kts | 120° |
| 2026-04-28 01:36 | 18.80980 | 66.41217 | 34817 ft | 515 kts | 120° |
| 2026-04-28 01:36 | 18.77570 | 66.47855 | 34820 ft | 515 kts | 120° |
| 2026-04-28 01:37 | 18.74150 | 66.54504 | 34817 ft | 515 kts | 120° |
| 2026-04-28 01:37 | 18.70727 | 66.61152 | 34815 ft | 516 kts | 120° |
| 2026-04-28 01:38 | 18.67294 | 66.67812 | 34820 ft | 517 kts | 120° |
| 2026-04-28 01:38 | 18.63858 | 66.74471 | 34816 ft | 518 kts | 121° |
| 2026-04-28 01:39 | 18.60410 | 66.81147 | 34816 ft | 519 kts | 121° |
| 2026-04-28 01:39 | 18.56951 | 66.87834 | 34814 ft | 520 kts | 121° |
| 2026-04-28 01:40 | 18.53484 | 66.94531 | 34820 ft | 521 kts | 121° |
| 2026-04-28 01:40 | 18.50025 | 67.01205 | 34824 ft | 522 kts | 121° |
| 2026-04-28 01:41 | 18.46542 | 67.07919 | 34808 ft | 523 kts | 121° |
| 2026-04-28 01:41 | 18.43046 | 67.14650 | 34821 ft | 524 kts | 121° |
| 2026-04-28 01:42 | 18.39542 | 67.21390 | 34818 ft | 525 kts | 122° |
| 2026-04-28 01:42 | 18.36032 | 67.28134 | 34818 ft | 526 kts | 122° |
| 2026-04-28 01:43 | 18.32512 | 67.34889 | 34819 ft | 527 kts | 122° |
| 2026-04-28 01:43 | 18.28981 | 67.41658 | 34821 ft | 528 kts | 122° |
| 2026-04-28 01:44 | 18.25439 | 67.48441 | 34823 ft | 529 kts | 122° |
| 2026-04-28 01:44 | 18.21886 | 67.55238 | 34817 ft | 531 kts | 122° |
| 2026-04-28 01:45 | 18.18322 | 67.62049 | 34819 ft | 532 kts | 122° |
| 2026-04-28 01:45 | 18.14751 | 67.68867 | 34824 ft | 533 kts | 123° |
| 2026-04-28 01:46 | 18.11169 | 67.75698 | 34820 ft | 534 kts | 123° |
| 2026-04-28 01:46 | 18.07581 | 67.82535 | 34823 ft | 534 kts | 123° |
| 2026-04-28 01:47 | 18.04053 | 67.89415 | 34820 ft | 535 kts | 122° |
| 2026-04-28 01:47 | 18.00597 | 67.96297 | 34824 ft | 536 kts | 121° |
| 2026-04-28 01:48 | 17.97114 | 68.03216 | 34822 ft | 536 kts | 122° |
| 2026-04-28 01:48 | 17.93614 | 68.10131 | 34816 ft | 536 kts | 122° |
| 2026-04-28 01:49 | 17.90103 | 68.17045 | 34824 ft | 536 kts | 122° |
| 2026-04-28 01:49 | 17.86598 | 68.23941 | 34822 ft | 536 kts | 122° |
| 2026-04-28 01:50 | 17.83082 | 68.30853 | 34818 ft | 537 kts | 122° |
| 2026-04-28 01:50 | 17.79561 | 68.37769 | 34816 ft | 537 kts | 122° |
| 2026-04-28 01:51 | 17.76044 | 68.44669 | 34817 ft | 537 kts | 122° |
| 2026-04-28 01:51 | 17.72525 | 68.51566 | 34821 ft | 536 kts | 122° |
| 2026-04-28 01:52 | 17.68999 | 68.58468 | 34818 ft | 536 kts | 122° |
| 2026-04-28 01:52 | 17.65476 | 68.65358 | 34825 ft | 536 kts | 122° |
| 2026-04-28 01:53 | 17.61955 | 68.72236 | 34824 ft | 536 kts | 122° |
| 2026-04-28 01:53 | 17.58429 | 68.79118 | 34822 ft | 536 kts | 122° |
| 2026-04-28 01:54 | 17.54899 | 68.85999 | 34827 ft | 536 kts | 122° |
| 2026-04-28 01:54 | 17.51370 | 68.92870 | 34821 ft | 536 kts | 122° |
| 2026-04-28 01:55 | 17.47839 | 68.99738 | 34817 ft | 536 kts | 122° |
| 2026-04-28 01:55 | 17.44300 | 69.06615 | 34823 ft | 536 kts | 122° |
| 2026-04-28 01:56 | 17.40762 | 69.13484 | 34823 ft | 536 kts | 122° |
| 2026-04-28 01:56 | 17.37223 | 69.20347 | 34821 ft | 536 kts | 122° |
| 2026-04-28 01:57 | 17.33677 | 69.27216 | 34819 ft | 536 kts | 122° |
| 2026-04-28 01:57 | 17.30130 | 69.34080 | 34820 ft | 536 kts | 122° |
| 2026-04-28 01:58 | 17.26581 | 69.40941 | 34822 ft | 536 kts | 122° |
| 2026-04-28 01:58 | 17.23054 | 69.47755 | 34822 ft | 536 kts | 122° |
| 2026-04-28 01:59 | 17.19480 | 69.54650 | 34820 ft | 536 kts | 122° |
| 2026-04-28 01:59 | 17.15939 | 69.61501 | 34824 ft | 535 kts | 122° |
| 2026-04-28 02:00 | 17.12433 | 69.68304 | 34823 ft | 535 kts | 122° |
| 2026-04-28 02:00 | 17.08906 | 69.75144 | 34823 ft | 534 kts | 122° |
| 2026-04-28 02:01 | 17.05376 | 69.81977 | 34826 ft | 534 kts | 122° |
| 2026-04-28 02:01 | 17.01846 | 69.88801 | 34825 ft | 534 kts | 122° |
| 2026-04-28 02:02 | 16.98317 | 69.95616 | 34825 ft | 533 kts | 122° |
| 2026-04-28 02:02 | 16.94783 | 70.02433 | 34826 ft | 533 kts | 122° |
| 2026-04-28 02:03 | 16.91255 | 70.09233 | 34828 ft | 532 kts | 122° |
| 2026-04-28 02:03 | 16.87729 | 70.16022 | 34822 ft | 532 kts | 122° |
| 2026-04-28 02:04 | 16.84202 | 70.22806 | 34829 ft | 531 kts | 122° |
| 2026-04-28 02:04 | 16.80679 | 70.29576 | 34833 ft | 531 kts | 122° |
| 2026-04-28 02:05 | 16.77156 | 70.36339 | 34829 ft | 530 kts | 122° |
| 2026-04-28 02:05 | 16.73634 | 70.43093 | 34829 ft | 530 kts | 122° |
| 2026-04-28 02:06 | 16.70112 | 70.49841 | 34832 ft | 529 kts | 122° |
| 2026-04-28 02:06 | 16.66593 | 70.56577 | 34825 ft | 528 kts | 122° |
| 2026-04-28 02:07 | 16.63077 | 70.63300 | 34831 ft | 528 kts | 122° |
| 2026-04-28 02:07 | 16.59561 | 70.70017 | 34833 ft | 528 kts | 122° |
| 2026-04-28 02:08 | 16.56046 | 70.76726 | 34830 ft | 527 kts | 122° |
| 2026-04-28 02:08 | 16.52555 | 70.83383 | 34831 ft | 527 kts | 122° |
| 2026-04-28 02:09 | 16.49066 | 70.90086 | 34846 ft | 527 kts | 122° |
| 2026-04-28 02:09 | 16.45592 | 70.96800 | 34829 ft | 526 kts | 122° |
| 2026-04-28 02:10 | 16.42116 | 71.03509 | 34837 ft | 526 kts | 122° |
| 2026-04-28 02:10 | 16.38632 | 71.10216 | 34834 ft | 526 kts | 122° |
| 2026-04-28 02:11 | 16.35149 | 71.16913 | 34848 ft | 526 kts | 122° |
| 2026-04-28 02:11 | 16.31667 | 71.23602 | 34835 ft | 526 kts | 122° |
| 2026-04-28 02:12 | 16.28183 | 71.30288 | 34833 ft | 526 kts | 121° |
| 2026-04-28 02:12 | 16.24696 | 71.36975 | 34848 ft | 525 kts | 121° |
| 2026-04-28 02:13 | 16.21207 | 71.43658 | 34846 ft | 525 kts | 121° |
| 2026-04-28 02:13 | 16.17722 | 71.50328 | 34840 ft | 525 kts | 121° |
| 2026-04-28 02:14 | 16.14237 | 71.56994 | 34842 ft | 525 kts | 121° |
| 2026-04-28 02:14 | 16.10752 | 71.63653 | 34842 ft | 524 kts | 121° |
| 2026-04-28 02:15 | 16.05602 | 71.73683 | 34838 ft | 524 kts | 120° |
| 2026-04-28 02:16 | 16.02219 | 71.80382 | 34840 ft | 523 kts | 120° |
| 2026-04-28 02:16 | 15.98829 | 71.87070 | 34838 ft | 523 kts | 120° |
| 2026-04-28 02:17 | 15.95430 | 71.93749 | 34840 ft | 522 kts | 121° |
| 2026-04-28 02:17 | 15.92032 | 72.00413 | 34844 ft | 522 kts | 121° |
| 2026-04-28 02:18 | 15.88636 | 72.07067 | 34840 ft | 521 kts | 120° |
| 2026-04-28 02:18 | 15.85240 | 72.13717 | 34841 ft | 521 kts | 120° |
| 2026-04-28 02:19 | 15.82420 | 72.19235 | 34839 ft | 520 kts | 120° |
| 2026-04-28 02:19 | 15.78483 | 72.26933 | 34838 ft | 519 kts | 120° |
| 2026-04-28 02:20 | 15.75093 | 72.33553 | 34838 ft | 518 kts | 121° |
| 2026-04-28 02:20 | 15.71709 | 72.40155 | 34841 ft | 518 kts | 120° |
| 2026-04-28 02:21 | 15.68874 | 72.45681 | 34841 ft | 517 kts | 120° |
| 2026-04-28 02:21 | 15.65497 | 72.52260 | 34842 ft | 516 kts | 121° |
| 2026-04-28 02:22 | 15.62142 | 72.58789 | 34845 ft | 516 kts | 120° |
| 2026-04-28 02:22 | 15.58743 | 72.65397 | 34842 ft | 515 kts | 121° |
| 2026-04-28 02:23 | 15.55391 | 72.71909 | 34842 ft | 515 kts | 121° |
| 2026-04-28 02:23 | 15.51994 | 72.78501 | 34844 ft | 515 kts | 121° |
| 2026-04-28 02:24 | 15.48616 | 72.85052 | 34845 ft | 514 kts | 121° |
| 2026-04-28 02:24 | 15.45267 | 72.91540 | 34843 ft | 514 kts | 121° |
| 2026-04-28 02:25 | 15.41892 | 72.98072 | 34847 ft | 514 kts | 121° |
| 2026-04-28 02:25 | 15.38513 | 73.04606 | 34845 ft | 514 kts | 121° |
| 2026-04-28 02:26 | 15.35116 | 73.11169 | 34844 ft | 514 kts | 121° |
| 2026-04-28 02:26 | 15.31762 | 73.17646 | 34843 ft | 513 kts | 121° |
| 2026-04-28 02:27 | 15.28386 | 73.24157 | 34844 ft | 513 kts | 121° |
| 2026-04-28 02:27 | 15.25008 | 73.30667 | 34843 ft | 513 kts | 121° |
| 2026-04-28 02:28 | 15.21631 | 73.37168 | 34842 ft | 512 kts | 121° |
| 2026-04-28 02:28 | 15.18254 | 73.43665 | 34845 ft | 512 kts | 121° |
| 2026-04-28 02:29 | 15.14881 | 73.50148 | 34843 ft | 512 kts | 121° |
| 2026-04-28 02:29 | 15.11502 | 73.56638 | 34843 ft | 512 kts | 121° |
| 2026-04-28 02:30 | 15.08124 | 73.63119 | 34845 ft | 511 kts | 121° |
| 2026-04-28 02:30 | 15.04747 | 73.69595 | 34849 ft | 511 kts | 121° |
| 2026-04-28 02:31 | 15.01373 | 73.76061 | 34849 ft | 511 kts | 121° |
| 2026-04-28 02:31 | 14.98002 | 73.82523 | 34848 ft | 510 kts | 121° |
| 2026-04-28 02:32 | 14.94639 | 73.88991 | 34852 ft | 510 kts | 121° |
| 2026-04-28 02:32 | 14.91281 | 73.95442 | 34857 ft | 510 kts | 121° |
| 2026-04-28 02:33 | 14.87910 | 74.01878 | 34856 ft | 509 kts | 122° |
| 2026-04-28 02:33 | 14.84523 | 74.08319 | 34859 ft | 509 kts | 122° |
| 2026-04-28 02:34 | 14.81142 | 74.14745 | 34866 ft | 509 kts | 122° |
| 2026-04-28 02:34 | 14.77764 | 74.21170 | 34873 ft | 508 kts | 122° |
| 2026-04-28 02:35 | 14.74386 | 74.27587 | 34868 ft | 509 kts | 122° |
| 2026-04-28 02:35 | 14.71003 | 74.34008 | 34873 ft | 509 kts | 122° |
| 2026-04-28 02:36 | 14.67620 | 74.40425 | 34886 ft | 509 kts | 122° |
| 2026-04-28 02:36 | 14.64229 | 74.46853 | 34876 ft | 509 kts | 122° |
| 2026-04-28 02:37 | 14.60842 | 74.53266 | 34890 ft | 508 kts | 122° |
| 2026-04-28 02:37 | 14.57454 | 74.59677 | 34897 ft | 509 kts | 122° |
| 2026-04-28 02:38 | 14.54058 | 74.66098 | 34906 ft | 510 kts | 122° |
| 2026-04-28 02:38 | 14.50684 | 74.72475 | 34909 ft | 510 kts | 122° |
| 2026-04-28 02:39 | 14.47298 | 74.78883 | 34914 ft | 510 kts | 122° |
| 2026-04-28 02:39 | 14.43951 | 74.85361 | 34918 ft | 511 kts | 121° |
| 2026-04-28 02:40 | 14.40625 | 74.91835 | 34926 ft | 511 kts | 121° |
| 2026-04-28 02:40 | 14.37290 | 74.98301 | 34921 ft | 510 kts | 121° |
| 2026-04-28 02:41 | 14.33947 | 75.04764 | 34931 ft | 510 kts | 121° |
| 2026-04-28 02:41 | 14.30607 | 75.11215 | 34934 ft | 510 kts | 121° |
| 2026-04-28 02:42 | 14.27260 | 75.17673 | 34932 ft | 510 kts | 121° |
| 2026-04-28 02:42 | 14.23920 | 75.24115 | 34931 ft | 510 kts | 121° |
| 2026-04-28 02:43 | 14.20579 | 75.30553 | 34935 ft | 509 kts | 121° |
| 2026-04-28 02:43 | 14.17234 | 75.36994 | 34938 ft | 509 kts | 121° |
| 2026-04-28 02:44 | 14.13894 | 75.43421 | 34938 ft | 509 kts | 121° |
| 2026-04-28 02:44 | 14.10556 | 75.49840 | 34939 ft | 508 kts | 121° |
| 2026-04-28 02:45 | 14.07213 | 75.56256 | 34943 ft | 508 kts | 121° |
| 2026-04-28 02:45 | 14.03867 | 75.62649 | 34948 ft | 507 kts | 121° |
| 2026-04-28 02:46 | 14.00515 | 75.69042 | 34945 ft | 507 kts | 121° |
| 2026-04-28 02:46 | 13.97193 | 75.75379 | 34946 ft | 506 kts | 121° |
| 2026-04-28 02:47 | 13.93847 | 75.81760 | 34948 ft | 506 kts | 121° |
| 2026-04-28 02:47 | 13.90504 | 75.88131 | 34952 ft | 506 kts | 121° |
| 2026-04-28 02:48 | 13.87158 | 75.94502 | 34949 ft | 506 kts | 121° |
| 2026-04-28 02:48 | 13.83811 | 76.00869 | 34956 ft | 506 kts | 121° |
| 2026-04-28 02:49 | 13.80459 | 76.07241 | 34956 ft | 506 kts | 121° |
| 2026-04-28 02:49 | 13.77110 | 76.13604 | 34958 ft | 506 kts | 121° |
| 2026-04-28 02:50 | 13.73755 | 76.19972 | 34955 ft | 506 kts | 121° |
| 2026-04-28 02:50 | 13.70402 | 76.26332 | 34956 ft | 506 kts | 121° |
| 2026-04-28 02:51 | 13.67044 | 76.32697 | 34962 ft | 506 kts | 121° |
| 2026-04-28 02:51 | 13.63685 | 76.39058 | 34957 ft | 506 kts | 121° |
| 2026-04-28 02:52 | 13.60323 | 76.45418 | 34959 ft | 506 kts | 121° |
| 2026-04-28 02:52 | 13.56966 | 76.51767 | 34959 ft | 506 kts | 121° |
| 2026-04-28 02:53 | 13.53605 | 76.58118 | 34960 ft | 505 kts | 121° |
| 2026-04-28 02:53 | 13.50251 | 76.64451 | 34964 ft | 504 kts | 121° |
| 2026-04-28 02:54 | 13.46894 | 76.70784 | 34967 ft | 504 kts | 121° |
| 2026-04-28 02:54 | 13.43550 | 76.77086 | 34966 ft | 503 kts | 121° |
| 2026-04-28 02:55 | 13.40197 | 76.83403 | 34967 ft | 503 kts | 121° |
| 2026-04-28 02:55 | 13.36850 | 76.89704 | 34972 ft | 502 kts | 121° |
| 2026-04-28 02:56 | 13.33506 | 76.95994 | 34973 ft | 502 kts | 121° |
| 2026-04-28 02:56 | 13.30162 | 77.02278 | 34973 ft | 501 kts | 121° |
| 2026-04-28 02:57 | 13.26822 | 77.08551 | 34978 ft | 501 kts | 121° |
| 2026-04-28 02:57 | 13.23482 | 77.14818 | 34982 ft | 501 kts | 121° |
| 2026-04-28 02:58 | 13.20137 | 77.21093 | 34981 ft | 501 kts | 121° |
| 2026-04-28 02:58 | 13.16795 | 77.27357 | 34983 ft | 500 kts | 121° |
| 2026-04-28 02:59 | 13.13454 | 77.33615 | 34988 ft | 500 kts | 121° |
| 2026-04-28 02:59 | 13.10108 | 77.39876 | 34997 ft | 500 kts | 121° |
| 2026-04-28 03:00 | 13.06762 | 77.46133 | 35008 ft | 500 kts | 121° |
| 2026-04-28 03:00 | 13.03417 | 77.52385 | 35014 ft | 500 kts | 121° |
| 2026-04-28 03:01 | 13.00086 | 77.58605 | 35025 ft | 501 kts | 121° |
| 2026-04-28 03:01 | 12.96735 | 77.64860 | 35022 ft | 500 kts | 121° |
| 2026-04-28 03:02 | 12.93525 | 77.71242 | 35026 ft | 501 kts | 117° |
| 2026-04-28 03:02 | 12.90632 | 77.77748 | 35019 ft | 501 kts | 116° |
| 2026-04-28 03:03 | 12.87783 | 77.84220 | 35007 ft | 501 kts | 116° |
| 2026-04-28 03:03 | 12.84877 | 77.90765 | 34995 ft | 501 kts | 117° |
| 2026-04-28 03:04 | 12.81980 | 77.97244 | 34980 ft | 500 kts | 117° |
| 2026-04-28 03:04 | 12.79076 | 78.03728 | 34972 ft | 500 kts | 117° |
| 2026-04-28 03:05 | 12.76195 | 78.10155 | 34966 ft | 500 kts | 117° |
| 2026-04-28 03:05 | 12.73295 | 78.16623 | 34962 ft | 499 kts | 117° |
| 2026-04-28 03:06 | 12.70398 | 78.23082 | 34957 ft | 499 kts | 117° |
| 2026-04-28 03:06 | 12.67970 | 78.28488 | 34947 ft | 499 kts | 117° |
| 2026-04-28 03:07 | 12.65065 | 78.34954 | 35077 ft | 501 kts | 117° |
| 2026-04-28 03:07 | 12.63608 | 78.38193 | 35432 ft | 500 kts | 117° |
| 2026-04-28 03:07 | 12.62162 | 78.41410 | 35849 ft | 496 kts | 117° |
| 2026-04-28 03:07 | 12.60721 | 78.44616 | 36248 ft | 494 kts | 117° |
| 2026-04-28 03:08 | 12.59290 | 78.47795 | 36618 ft | 492 kts | 117° |
| 2026-04-28 03:08 | 12.57861 | 78.50970 | 36880 ft | 492 kts | 117° |
| 2026-04-28 03:08 | 12.56422 | 78.54163 | 36895 ft | 494 kts | 117° |
| 2026-04-28 03:09 | 12.53567 | 78.60497 | 36926 ft | 492 kts | 117° |
| 2026-04-28 03:09 | 12.50696 | 78.66864 | 36926 ft | 488 kts | 117° |
| 2026-04-28 03:10 | 12.47856 | 78.73158 | 36916 ft | 486 kts | 117° |
| 2026-04-28 03:10 | 12.45039 | 78.79392 | 36926 ft | 486 kts | 117° |
| 2026-04-28 03:11 | 12.42200 | 78.85674 | 36916 ft | 487 kts | 117° |
| 2026-04-28 03:11 | 12.39352 | 78.91969 | 36917 ft | 488 kts | 117° |
| 2026-04-28 03:12 | 12.36503 | 78.98264 | 36906 ft | 489 kts | 117° |
| 2026-04-28 03:12 | 12.33621 | 79.04626 | 36900 ft | 489 kts | 117° |
| 2026-04-28 03:13 | 12.30780 | 79.10895 | 36893 ft | 490 kts | 117° |
| 2026-04-28 03:13 | 12.27914 | 79.17212 | 36890 ft | 490 kts | 117° |
| 2026-04-28 03:14 | 12.25048 | 79.23525 | 36885 ft | 489 kts | 117° |
| 2026-04-28 03:14 | 12.22186 | 79.29827 | 36879 ft | 488 kts | 117° |
| 2026-04-28 03:15 | 12.19325 | 79.36120 | 36878 ft | 487 kts | 117° |
| 2026-04-28 03:15 | 12.16473 | 79.42391 | 36880 ft | 487 kts | 117° |
| 2026-04-28 03:16 | 12.13611 | 79.48679 | 36874 ft | 487 kts | 117° |
| 2026-04-28 03:16 | 12.10753 | 79.54955 | 36863 ft | 487 kts | 117° |
| 2026-04-28 03:17 | 12.07897 | 79.61233 | 36859 ft | 486 kts | 116° |
| 2026-04-28 03:17 | 12.03784 | 79.70682 | 36867 ft | 485 kts | 115° |
| 2026-04-28 03:18 | 12.01060 | 79.76983 | 36855 ft | 485 kts | 116° |
| 2026-04-28 03:18 | 11.98324 | 79.83270 | 36856 ft | 484 kts | 116° |
| 2026-04-28 03:19 | 11.95586 | 79.89545 | 36858 ft | 484 kts | 116° |
| 2026-04-28 03:19 | 11.92849 | 79.95818 | 36856 ft | 483 kts | 116° |
| 2026-04-28 03:20 | 11.90109 | 80.02093 | 36854 ft | 484 kts | 116° |
| 2026-04-28 03:20 | 11.87371 | 80.08360 | 36857 ft | 484 kts | 116° |
| 2026-04-28 03:21 | 11.84623 | 80.14633 | 36855 ft | 484 kts | 116° |
| 2026-04-28 03:21 | 11.81872 | 80.20858 | 36855 ft | 484 kts | 116° |
| 2026-04-28 03:22 | 11.79095 | 80.27134 | 36858 ft | 485 kts | 116° |
| 2026-04-28 03:22 | 11.76320 | 80.33406 | 36856 ft | 485 kts | 116° |
| 2026-04-28 03:23 | 11.73547 | 80.39676 | 36858 ft | 485 kts | 116° |
| 2026-04-28 03:23 | 11.70770 | 80.45950 | 36857 ft | 485 kts | 116° |
| 2026-04-28 03:24 | 11.67991 | 80.52226 | 36857 ft | 485 kts | 116° |
| 2026-04-28 03:24 | 11.65209 | 80.58502 | 36863 ft | 485 kts | 116° |
| 2026-04-28 03:25 | 11.62429 | 80.64769 | 36858 ft | 485 kts | 116° |
| 2026-04-28 03:25 | 11.59648 | 80.71036 | 36858 ft | 485 kts | 116° |
| 2026-04-28 03:26 | 11.56863 | 80.77307 | 36861 ft | 485 kts | 116° |
| 2026-04-28 03:26 | 11.54079 | 80.83571 | 36860 ft | 485 kts | 116° |
| 2026-04-28 03:27 | 11.51292 | 80.89839 | 36861 ft | 485 kts | 116° |
| 2026-04-28 03:27 | 11.48502 | 80.96106 | 36861 ft | 485 kts | 116° |
| 2026-04-28 03:28 | 11.45708 | 81.02379 | 36861 ft | 486 kts | 116° |
| 2026-04-28 03:28 | 11.42918 | 81.08642 | 36860 ft | 485 kts | 116° |
| 2026-04-28 03:29 | 11.40123 | 81.14909 | 36861 ft | 485 kts | 116° |
| 2026-04-28 03:29 | 11.37330 | 81.21169 | 36863 ft | 485 kts | 116° |
| 2026-04-28 03:30 | 11.34535 | 81.27426 | 36858 ft | 485 kts | 116° |
| 2026-04-28 03:30 | 11.31745 | 81.33672 | 36859 ft | 484 kts | 116° |
| 2026-04-28 03:31 | 11.28953 | 81.39915 | 36859 ft | 484 kts | 116° |
| 2026-04-28 03:31 | 11.26165 | 81.46146 | 36861 ft | 483 kts | 116° |
| 2026-04-28 03:32 | 11.23377 | 81.52374 | 36863 ft | 483 kts | 116° |
| 2026-04-28 03:32 | 11.20592 | 81.58589 | 36866 ft | 482 kts | 116° |
| 2026-04-28 03:33 | 11.17810 | 81.64796 | 36867 ft | 482 kts | 116° |
| 2026-04-28 03:33 | 11.15027 | 81.70999 | 36866 ft | 481 kts | 116° |
| 2026-04-28 03:34 | 11.12243 | 81.77201 | 36866 ft | 481 kts | 116° |
| 2026-04-28 03:34 | 11.09464 | 81.83386 | 36866 ft | 480 kts | 116° |
| 2026-04-28 03:35 | 11.06686 | 81.89568 | 36867 ft | 480 kts | 116° |
| 2026-04-28 03:35 | 11.03907 | 81.95746 | 36868 ft | 480 kts | 116° |
| 2026-04-28 03:36 | 11.01133 | 82.01911 | 36867 ft | 479 kts | 116° |
| 2026-04-28 03:36 | 10.98354 | 82.08082 | 36869 ft | 479 kts | 116° |
| 2026-04-28 03:37 | 10.95595 | 82.14204 | 36870 ft | 479 kts | 116° |
| 2026-04-28 03:37 | 10.92821 | 82.20355 | 36869 ft | 478 kts | 116° |
| 2026-04-28 03:38 | 10.90048 | 82.26503 | 36871 ft | 478 kts | 116° |
| 2026-04-28 03:38 | 10.87272 | 82.32650 | 36873 ft | 477 kts | 116° |
| 2026-04-28 03:39 | 10.84500 | 82.38787 | 36873 ft | 477 kts | 116° |
| 2026-04-28 03:39 | 10.81731 | 82.44913 | 36871 ft | 477 kts | 116° |
| 2026-04-28 03:40 | 10.78963 | 82.51034 | 36870 ft | 476 kts | 116° |
| 2026-04-28 03:40 | 10.76193 | 82.57154 | 36873 ft | 476 kts | 116° |
| 2026-04-28 03:41 | 10.73425 | 82.63267 | 36872 ft | 476 kts | 116° |
| 2026-04-28 03:41 | 10.70651 | 82.69389 | 36875 ft | 476 kts | 116° |
| 2026-04-28 03:42 | 10.67881 | 82.75499 | 36879 ft | 476 kts | 116° |
| 2026-04-28 03:42 | 10.65113 | 82.81604 | 36875 ft | 476 kts | 116° |
| 2026-04-28 03:43 | 10.62343 | 82.87708 | 36877 ft | 475 kts | 116° |
| 2026-04-28 03:43 | 10.59581 | 82.93818 | 36878 ft | 475 kts | 116° |
| 2026-04-28 03:44 | 10.56822 | 82.99925 | 36879 ft | 475 kts | 116° |
| 2026-04-28 03:44 | 10.54061 | 83.06034 | 36877 ft | 475 kts | 116° |
| 2026-04-28 03:45 | 10.51304 | 83.12131 | 36877 ft | 475 kts | 116° |
| 2026-04-28 03:45 | 10.48542 | 83.18232 | 36874 ft | 475 kts | 116° |
| 2026-04-28 03:46 | 10.45776 | 83.24338 | 36876 ft | 475 kts | 116° |
| 2026-04-28 03:46 | 10.43012 | 83.30438 | 36877 ft | 475 kts | 116° |
| 2026-04-28 03:47 | 10.40247 | 83.36533 | 36877 ft | 476 kts | 116° |
| 2026-04-28 03:47 | 10.37477 | 83.42639 | 36876 ft | 476 kts | 116° |
| 2026-04-28 03:48 | 10.34720 | 83.48711 | 36883 ft | 476 kts | 116° |
| 2026-04-28 03:48 | 10.31943 | 83.54824 | 36881 ft | 477 kts | 116° |
| 2026-04-28 03:49 | 10.29167 | 83.60931 | 36879 ft | 477 kts | 116° |
| 2026-04-28 03:49 | 10.26379 | 83.67059 | 36879 ft | 478 kts | 116° |
| 2026-04-28 03:50 | 10.23595 | 83.73177 | 36880 ft | 478 kts | 116° |
| 2026-04-28 03:50 | 10.20802 | 83.79312 | 36880 ft | 479 kts | 116° |
| 2026-04-28 03:51 | 10.18008 | 83.85444 | 36880 ft | 479 kts | 116° |
| 2026-04-28 03:51 | 10.15209 | 83.91583 | 36878 ft | 479 kts | 116° |
| 2026-04-28 03:52 | 10.12887 | 83.96673 | 36882 ft | 479 kts | 116° |
| 2026-04-28 03:52 | 10.10089 | 84.02805 | 36882 ft | 478 kts | 116° |
| 2026-04-28 03:53 | 10.07293 | 84.08928 | 36882 ft | 478 kts | 116° |
| 2026-04-28 03:53 | 10.04496 | 84.15050 | 36882 ft | 478 kts | 116° |
| 2026-04-28 03:54 | 10.01703 | 84.21159 | 36884 ft | 477 kts | 116° |
| 2026-04-28 03:54 | 9.98909 | 84.27265 | 36887 ft | 477 kts | 116° |
| 2026-04-28 03:55 | 9.96116 | 84.33368 | 36885 ft | 477 kts | 116° |
| 2026-04-28 03:55 | 9.93323 | 84.39467 | 36883 ft | 477 kts | 116° |
| 2026-04-28 03:56 | 9.90528 | 84.45567 | 36885 ft | 477 kts | 116° |
| 2026-04-28 03:56 | 9.87733 | 84.51665 | 36885 ft | 477 kts | 116° |
| 2026-04-28 03:57 | 9.84938 | 84.57757 | 36883 ft | 477 kts | 116° |
| 2026-04-28 03:57 | 9.82140 | 84.63853 | 36886 ft | 477 kts | 116° |
| 2026-04-28 03:58 | 9.79342 | 84.69946 | 36884 ft | 477 kts | 116° |
| 2026-04-28 03:58 | 9.76540 | 84.76044 | 36884 ft | 477 kts | 116° |
| 2026-04-28 03:59 | 9.73735 | 84.82145 | 36886 ft | 478 kts | 116° |
| 2026-04-28 03:59 | 9.70924 | 84.88255 | 36884 ft | 478 kts | 116° |
| 2026-04-28 04:00 | 9.68110 | 84.94370 | 36886 ft | 479 kts | 116° |
| 2026-04-28 04:00 | 9.65293 | 85.00486 | 36880 ft | 479 kts | 116° |
| 2026-04-28 04:01 | 9.62476 | 85.06602 | 36884 ft | 479 kts | 116° |
| 2026-04-28 04:01 | 9.59655 | 85.12720 | 36884 ft | 479 kts | 116° |
| 2026-04-28 04:02 | 9.56833 | 85.18839 | 36885 ft | 479 kts | 116° |
| 2026-04-28 04:02 | 9.54009 | 85.24958 | 36883 ft | 480 kts | 116° |
| 2026-04-28 04:03 | 9.51182 | 85.31078 | 36885 ft | 480 kts | 116° |
| 2026-04-28 04:03 | 9.48352 | 85.37204 | 36879 ft | 480 kts | 116° |
| 2026-04-28 04:04 | 9.45521 | 85.43327 | 36887 ft | 480 kts | 116° |
| 2026-04-28 04:04 | 9.42689 | 85.49451 | 36890 ft | 480 kts | 116° |
| 2026-04-28 04:05 | 9.39861 | 85.55564 | 36883 ft | 479 kts | 116° |
| 2026-04-28 04:05 | 9.37033 | 85.61670 | 36886 ft | 478 kts | 116° |
| 2026-04-28 04:06 | 9.34209 | 85.67766 | 36887 ft | 477 kts | 116° |
| 2026-04-28 04:06 | 9.31392 | 85.73846 | 36884 ft | 476 kts | 116° |
| 2026-04-28 04:07 | 9.28580 | 85.79910 | 36883 ft | 475 kts | 116° |
| 2026-04-28 04:07 | 9.25773 | 85.85962 | 36885 ft | 475 kts | 116° |
| 2026-04-28 04:08 | 9.23011 | 85.92027 | 36886 ft | 474 kts | 115° |
| 2026-04-28 04:08 | 9.20311 | 85.98124 | 36882 ft | 475 kts | 115° |
| 2026-04-28 04:09 | 9.17615 | 86.04219 | 36888 ft | 475 kts | 115° |
| 2026-04-28 04:09 | 9.14908 | 86.10310 | 36884 ft | 475 kts | 115° |
| 2026-04-28 04:10 | 9.12183 | 86.16424 | 36887 ft | 476 kts | 115° |
| 2026-04-28 04:10 | 9.09458 | 86.22532 | 36886 ft | 476 kts | 115° |
| 2026-04-28 04:11 | 9.06730 | 86.28646 | 36890 ft | 477 kts | 115° |
| 2026-04-28 04:11 | 9.03998 | 86.34765 | 36887 ft | 477 kts | 115° |
| 2026-04-28 04:12 | 9.01285 | 86.40840 | 36889 ft | 477 kts | 115° |
| 2026-04-28 04:12 | 8.98553 | 86.46954 | 36886 ft | 477 kts | 115° |
| 2026-04-28 04:13 | 8.95821 | 86.53064 | 36890 ft | 476 kts | 115° |
| 2026-04-28 04:13 | 8.93093 | 86.59163 | 36888 ft | 476 kts | 115° |
| 2026-04-28 04:14 | 8.90367 | 86.65252 | 36886 ft | 475 kts | 115° |
| 2026-04-28 04:14 | 8.87642 | 86.71338 | 36893 ft | 475 kts | 115° |
| 2026-04-28 04:15 | 8.84916 | 86.77423 | 36889 ft | 475 kts | 115° |
| 2026-04-28 04:16 | 8.80827 | 86.86544 | 36890 ft | 475 kts | 115° |
| 2026-04-28 04:16 | 8.78099 | 86.92624 | 36889 ft | 475 kts | 115° |
| 2026-04-28 04:17 | 8.75371 | 86.98701 | 36892 ft | 475 kts | 115° |
| 2026-04-28 04:17 | 8.72642 | 87.04780 | 36891 ft | 475 kts | 115° |
| 2026-04-28 04:18 | 8.69906 | 87.10868 | 36886 ft | 475 kts | 115° |
| 2026-04-28 04:18 | 8.67175 | 87.16944 | 36889 ft | 475 kts | 115° |
| 2026-04-28 04:19 | 8.64438 | 87.23030 | 36891 ft | 476 kts | 115° |
| 2026-04-28 04:19 | 8.61698 | 87.29119 | 36892 ft | 476 kts | 115° |
| 2026-04-28 04:20 | 8.58960 | 87.35203 | 36890 ft | 476 kts | 115° |
| 2026-04-28 04:20 | 8.56222 | 87.41281 | 36889 ft | 476 kts | 115° |
| 2026-04-28 04:21 | 8.53497 | 87.47329 | 36894 ft | 475 kts | 115° |
| 2026-04-28 04:21 | 8.50757 | 87.53406 | 36893 ft | 475 kts | 115° |
| 2026-04-28 04:22 | 8.48018 | 87.59478 | 36889 ft | 475 kts | 115° |
| 2026-04-28 04:22 | 8.45278 | 87.65550 | 36889 ft | 475 kts | 115° |
| 2026-04-28 04:23 | 8.42538 | 87.71619 | 36892 ft | 475 kts | 115° |
| 2026-04-28 04:23 | 8.39797 | 87.77686 | 36890 ft | 475 kts | 115° |
| 2026-04-28 04:24 | 8.37059 | 87.83745 | 36891 ft | 475 kts | 115° |
| 2026-04-28 04:24 | 8.34320 | 87.89803 | 36892 ft | 475 kts | 115° |
| 2026-04-28 04:25 | 8.31574 | 87.95874 | 36890 ft | 475 kts | 115° |
| 2026-04-28 04:25 | 8.28831 | 88.01935 | 36892 ft | 475 kts | 115° |
| 2026-04-28 04:26 | 8.26082 | 88.08005 | 36891 ft | 475 kts | 114° |
| 2026-04-28 04:26 | 8.23334 | 88.14072 | 36891 ft | 475 kts | 114° |
| 2026-04-28 04:27 | 8.20585 | 88.20137 | 36890 ft | 475 kts | 114° |
| 2026-04-28 04:27 | 8.17833 | 88.26207 | 36892 ft | 475 kts | 114° |
| 2026-04-28 04:28 | 8.15083 | 88.32269 | 36891 ft | 475 kts | 114° |
| 2026-04-28 04:28 | 8.12331 | 88.38334 | 36893 ft | 476 kts | 114° |
| 2026-04-28 04:29 | 8.09576 | 88.44402 | 36888 ft | 476 kts | 114° |
| 2026-04-28 04:29 | 8.06817 | 88.50475 | 36893 ft | 476 kts | 114° |
| 2026-04-28 04:30 | 8.04059 | 88.56543 | 36889 ft | 476 kts | 114° |
| 2026-04-28 04:30 | 8.01301 | 88.62609 | 36888 ft | 476 kts | 114° |
| 2026-04-28 04:31 | 7.98541 | 88.68676 | 36885 ft | 476 kts | 114° |
| 2026-04-28 04:31 | 7.95780 | 88.74744 | 36888 ft | 476 kts | 114° |
| 2026-04-28 04:32 | 7.93019 | 88.80808 | 36889 ft | 476 kts | 114° |
| 2026-04-28 04:32 | 7.90256 | 88.86874 | 36889 ft | 476 kts | 114° |
| 2026-04-28 04:33 | 7.87493 | 88.92937 | 36891 ft | 476 kts | 114° |
| 2026-04-28 04:33 | 7.84729 | 88.99000 | 36890 ft | 476 kts | 114° |
| 2026-04-28 04:34 | 7.81963 | 89.05064 | 36890 ft | 476 kts | 114° |
| 2026-04-28 04:34 | 7.79194 | 89.11133 | 36891 ft | 476 kts | 114° |
| 2026-04-28 04:35 | 7.76422 | 89.17204 | 36889 ft | 477 kts | 114° |
| 2026-04-28 04:35 | 7.73651 | 89.23274 | 36886 ft | 477 kts | 114° |
| 2026-04-28 04:36 | 7.70874 | 89.29354 | 36886 ft | 477 kts | 114° |
| 2026-04-28 04:36 | 7.68104 | 89.35437 | 36887 ft | 478 kts | 114° |
| 2026-04-28 04:37 | 7.65398 | 89.41508 | 36891 ft | 478 kts | 114° |
| 2026-04-28 04:37 | 7.63122 | 89.46641 | 36894 ft | 479 kts | 114° |
| 2026-04-28 04:38 | 7.60413 | 89.52735 | 36890 ft | 479 kts | 114° |
| 2026-04-28 04:38 | 7.57682 | 89.58865 | 36888 ft | 480 kts | 114° |
| 2026-04-28 04:39 | 7.54943 | 89.65003 | 36884 ft | 480 kts | 114° |
| 2026-04-28 04:39 | 7.52200 | 89.71147 | 36888 ft | 481 kts | 114° |
| 2026-04-28 04:40 | 7.49456 | 89.77293 | 36889 ft | 481 kts | 114° |
| 2026-04-28 04:40 | 7.46709 | 89.83441 | 36890 ft | 481 kts | 114° |
| 2026-04-28 04:41 | 7.43961 | 89.89591 | 36887 ft | 481 kts | 114° |
| 2026-04-28 04:41 | 7.41212 | 89.95739 | 36886 ft | 481 kts | 114° |
| 2026-04-28 04:42 | 7.38465 | 90.01880 | 36909 ft | 478 kts | 114° |
| 2026-04-28 04:42 | 7.35758 | 90.07928 | 36880 ft | 470 kts | 114° |
| 2026-04-28 04:43 | 7.33074 | 90.13924 | 36890 ft | 470 kts | 114° |
| 2026-04-28 04:43 | 7.30386 | 90.19928 | 36890 ft | 470 kts | 114° |
| 2026-04-28 04:44 | 7.27694 | 90.25936 | 36890 ft | 471 kts | 113° |
| 2026-04-28 04:44 | 7.25012 | 90.31921 | 36888 ft | 472 kts | 113° |
| 2026-04-28 04:45 | 7.22306 | 90.37955 | 36888 ft | 473 kts | 113° |
| 2026-04-28 04:45 | 7.19592 | 90.44006 | 36889 ft | 474 kts | 113° |
| 2026-04-28 04:46 | 7.16876 | 90.50057 | 36888 ft | 474 kts | 113° |
| 2026-04-28 04:46 | 7.14159 | 90.56109 | 36887 ft | 474 kts | 113° |
| 2026-04-28 04:47 | 7.11441 | 90.62160 | 36888 ft | 474 kts | 113° |
| 2026-04-28 04:47 | 7.08723 | 90.68210 | 36886 ft | 474 kts | 113° |
| 2026-04-28 04:48 | 7.06004 | 90.74257 | 36889 ft | 474 kts | 113° |
| 2026-04-28 04:48 | 7.03290 | 90.80293 | 36886 ft | 473 kts | 113° |
| 2026-04-28 04:49 | 7.00576 | 90.86327 | 36887 ft | 473 kts | 113° |
| 2026-04-28 04:49 | 6.97862 | 90.92358 | 36889 ft | 473 kts | 113° |
| 2026-04-28 04:50 | 6.95148 | 90.98383 | 36889 ft | 473 kts | 113° |
| 2026-04-28 04:50 | 6.92436 | 91.04406 | 36887 ft | 473 kts | 113° |
| 2026-04-28 04:51 | 6.89722 | 91.10430 | 36888 ft | 473 kts | 113° |
| 2026-04-28 04:51 | 6.87008 | 91.16450 | 36889 ft | 473 kts | 113° |
| 2026-04-28 04:52 | 6.84289 | 91.22479 | 36883 ft | 473 kts | 113° |
| 2026-04-28 04:52 | 6.81569 | 91.28510 | 36885 ft | 473 kts | 113° |
| 2026-04-28 04:53 | 6.78846 | 91.34543 | 36885 ft | 473 kts | 113° |
| 2026-04-28 04:53 | 6.76124 | 91.40572 | 36885 ft | 474 kts | 113° |
| 2026-04-28 04:54 | 6.73398 | 91.46609 | 36887 ft | 474 kts | 113° |
| 2026-04-28 04:54 | 6.70671 | 91.52644 | 36887 ft | 474 kts | 113° |
| 2026-04-28 04:55 | 6.67945 | 91.58676 | 36888 ft | 474 kts | 113° |
| 2026-04-28 04:55 | 6.65232 | 91.64676 | 36888 ft | 474 kts | 113° |
| 2026-04-28 04:56 | 6.62499 | 91.70717 | 36886 ft | 474 kts | 113° |
| 2026-04-28 04:56 | 6.59767 | 91.76754 | 36885 ft | 475 kts | 114° |
| 2026-04-28 04:57 | 6.57032 | 91.82797 | 36885 ft | 475 kts | 114° |
| 2026-04-28 04:57 | 6.54292 | 91.88848 | 36886 ft | 475 kts | 114° |
| 2026-04-28 04:58 | 6.51554 | 91.94892 | 36885 ft | 475 kts | 114° |
| 2026-04-28 04:58 | 6.48813 | 92.00941 | 36885 ft | 475 kts | 114° |
| 2026-04-28 04:59 | 6.46069 | 92.06993 | 36888 ft | 476 kts | 114° |
| 2026-04-28 04:59 | 6.43325 | 92.13043 | 36888 ft | 476 kts | 114° |
| 2026-04-28 05:00 | 6.40579 | 92.19096 | 36887 ft | 476 kts | 114° |
| 2026-04-28 05:00 | 6.37831 | 92.25151 | 36887 ft | 476 kts | 114° |
| 2026-04-28 05:01 | 6.35084 | 92.31202 | 36886 ft | 476 kts | 113° |
| 2026-04-28 05:01 | 6.32334 | 92.37258 | 36886 ft | 476 kts | 113° |
| 2026-04-28 05:02 | 6.29584 | 92.43309 | 36888 ft | 476 kts | 113° |
| 2026-04-28 05:02 | 6.26831 | 92.49366 | 36888 ft | 476 kts | 113° |
| 2026-04-28 05:03 | 6.24082 | 92.55414 | 36885 ft | 476 kts | 113° |
| 2026-04-28 05:03 | 6.21327 | 92.61471 | 36883 ft | 476 kts | 113° |
| 2026-04-28 05:04 | 6.18575 | 92.67519 | 36887 ft | 476 kts | 113° |
| 2026-04-28 05:04 | 6.15820 | 92.73574 | 36887 ft | 476 kts | 113° |
| 2026-04-28 05:05 | 6.13063 | 92.79628 | 36886 ft | 476 kts | 113° |
| 2026-04-28 05:05 | 6.10307 | 92.85682 | 36883 ft | 476 kts | 113° |
| 2026-04-28 05:06 | 6.07548 | 92.91736 | 36886 ft | 477 kts | 113° |
| 2026-04-28 05:06 | 6.04808 | 92.97750 | 36885 ft | 477 kts | 113° |
| 2026-04-28 05:07 | 6.02031 | 93.03843 | 36882 ft | 477 kts | 113° |
| 2026-04-28 05:07 | 5.99270 | 93.09905 | 36884 ft | 477 kts | 113° |
| 2026-04-28 05:08 | 5.96553 | 93.15981 | 36884 ft | 477 kts | 112° |
| 2026-04-28 05:08 | 5.93867 | 93.22026 | 36885 ft | 477 kts | 112° |
| 2026-04-28 05:09 | 5.91162 | 93.28105 | 36881 ft | 477 kts | 112° |
| 2026-04-28 05:09 | 5.88450 | 93.34186 | 36881 ft | 477 kts | 112° |
| 2026-04-28 05:10 | 5.85738 | 93.40260 | 36883 ft | 477 kts | 112° |
| 2026-04-28 05:10 | 5.83027 | 93.46331 | 36881 ft | 477 kts | 112° |
| 2026-04-28 05:11 | 5.80311 | 93.52411 | 36881 ft | 477 kts | 112° |
| 2026-04-28 05:11 | 5.77599 | 93.58481 | 36883 ft | 477 kts | 112° |
| 2026-04-28 05:12 | 5.74296 | 93.64257 | 36881 ft | 479 kts | 125° |
| 2026-04-28 05:12 | 5.70189 | 93.69535 | 36883 ft | 480 kts | 126° |
| 2026-04-28 05:13 | 5.66052 | 93.74799 | 36879 ft | 480 kts | 126° |
| 2026-04-28 05:13 | 5.61936 | 93.80085 | 36880 ft | 481 kts | 126° |
| 2026-04-28 05:14 | 5.57837 | 93.85383 | 36887 ft | 480 kts | 127° |
| 2026-04-28 05:14 | 5.53753 | 93.90668 | 36879 ft | 479 kts | 127° |
| 2026-04-28 05:15 | 5.49675 | 93.95943 | 36880 ft | 478 kts | 127° |
| 2026-04-28 05:15 | 5.45604 | 94.01206 | 36882 ft | 476 kts | 127° |
| 2026-04-28 05:16 | 5.41542 | 94.06457 | 36881 ft | 476 kts | 127° |
| 2026-04-28 05:16 | 5.37491 | 94.11691 | 36883 ft | 475 kts | 127° |
| 2026-04-28 05:17 | 5.31432 | 94.19517 | 36882 ft | 475 kts | 127° |
| 2026-04-28 05:17 | 5.27376 | 94.24755 | 36883 ft | 475 kts | 127° |
| 2026-04-28 05:18 | 5.23318 | 94.29994 | 36881 ft | 476 kts | 127° |
| 2026-04-28 05:18 | 5.19256 | 94.35235 | 36881 ft | 476 kts | 127° |
| 2026-04-28 05:19 | 5.15189 | 94.40484 | 36880 ft | 476 kts | 127° |
| 2026-04-28 05:19 | 5.11119 | 94.45734 | 36880 ft | 477 kts | 127° |
| 2026-04-28 05:20 | 5.07048 | 94.50985 | 36880 ft | 477 kts | 127° |
| 2026-04-28 05:20 | 5.02974 | 94.56238 | 36878 ft | 477 kts | 127° |
| 2026-04-28 05:21 | 4.98898 | 94.61493 | 36879 ft | 477 kts | 127° |
| 2026-04-28 05:21 | 4.94827 | 94.66741 | 36879 ft | 477 kts | 127° |
| 2026-04-28 05:22 | 4.90746 | 94.71999 | 36877 ft | 477 kts | 127° |
| 2026-04-28 05:22 | 4.86672 | 94.77247 | 36876 ft | 477 kts | 127° |
| 2026-04-28 05:23 | 4.82592 | 94.82502 | 36875 ft | 477 kts | 127° |
| 2026-04-28 05:23 | 4.78675 | 94.87546 | 36877 ft | 477 kts | 127° |
| 2026-04-28 05:24 | 4.77714 | 94.88784 | 36875 ft | 477 kts | 127° |
| 2026-04-28 05:24 | 4.73634 | 94.94037 | 36874 ft | 477 kts | 127° |
| 2026-04-28 05:25 | 4.69552 | 94.99291 | 36874 ft | 478 kts | 127° |
| 2026-04-28 05:25 | 4.65470 | 95.04543 | 36874 ft | 478 kts | 127° |
| 2026-04-28 05:26 | 4.62079 | 95.08907 | 36873 ft | 478 kts | 127° |
| 2026-04-28 05:26 | 4.58001 | 95.14152 | 36875 ft | 478 kts | 127° |
| 2026-04-28 05:27 | 4.53908 | 95.19416 | 36875 ft | 478 kts | 127° |
| 2026-04-28 05:27 | 4.49822 | 95.24671 | 36873 ft | 478 kts | 127° |
| 2026-04-28 05:28 | 4.45738 | 95.29920 | 36873 ft | 478 kts | 127° |
| 2026-04-28 05:28 | 4.41655 | 95.35168 | 36868 ft | 478 kts | 127° |
| 2026-04-28 05:29 | 4.37571 | 95.40416 | 36867 ft | 478 kts | 127° |
| 2026-04-28 05:29 | 4.33484 | 95.45667 | 36870 ft | 478 kts | 127° |
| 2026-04-28 05:30 | 4.29400 | 95.50913 | 36869 ft | 478 kts | 127° |
| 2026-04-28 05:30 | 4.25313 | 95.56163 | 36868 ft | 478 kts | 127° |
| 2026-04-28 05:31 | 4.21230 | 95.61405 | 36869 ft | 478 kts | 127° |
| 2026-04-28 05:31 | 4.17141 | 95.66654 | 36871 ft | 478 kts | 127° |
| 2026-04-28 05:32 | 4.13053 | 95.71902 | 36869 ft | 478 kts | 127° |
| 2026-04-28 05:32 | 4.08962 | 95.77151 | 36865 ft | 478 kts | 127° |
| 2026-04-28 05:33 | 4.04871 | 95.82401 | 36866 ft | 478 kts | 127° |
| 2026-04-28 05:33 | 4.00782 | 95.87647 | 36867 ft | 478 kts | 127° |
| 2026-04-28 05:34 | 3.96689 | 95.92896 | 36868 ft | 478 kts | 127° |
| 2026-04-28 05:34 | 3.92595 | 95.98146 | 36864 ft | 478 kts | 127° |
| 2026-04-28 05:35 | 3.88502 | 96.03394 | 36864 ft | 478 kts | 127° |
| 2026-04-28 05:35 | 3.84408 | 96.08641 | 36862 ft | 478 kts | 127° |
| 2026-04-28 05:36 | 3.80340 | 96.13856 | 36863 ft | 478 kts | 127° |
| 2026-04-28 05:36 | 3.76244 | 96.19104 | 36857 ft | 479 kts | 126° |
| 2026-04-28 05:37 | 3.72140 | 96.24363 | 36866 ft | 479 kts | 126° |
| 2026-04-28 05:37 | 3.68031 | 96.29627 | 36861 ft | 480 kts | 126° |
| 2026-04-28 05:38 | 3.63916 | 96.34897 | 36862 ft | 481 kts | 126° |
| 2026-04-28 05:38 | 3.59800 | 96.40168 | 36860 ft | 481 kts | 126° |
| 2026-04-28 05:39 | 3.55681 | 96.45442 | 36858 ft | 480 kts | 127° |
| 2026-04-28 05:39 | 3.51570 | 96.50705 | 36859 ft | 480 kts | 127° |
| 2026-04-28 05:40 | 3.47465 | 96.55959 | 36861 ft | 479 kts | 127° |
| 2026-04-28 05:40 | 3.43362 | 96.61210 | 36858 ft | 478 kts | 127° |
| 2026-04-28 05:41 | 3.39267 | 96.66450 | 36859 ft | 477 kts | 127° |
| 2026-04-28 05:41 | 3.35181 | 96.71677 | 36861 ft | 477 kts | 127° |
| 2026-04-28 05:42 | 3.31094 | 96.76906 | 36859 ft | 476 kts | 127° |
| 2026-04-28 05:42 | 3.27014 | 96.82125 | 36859 ft | 476 kts | 127° |
| 2026-04-28 05:43 | 3.22926 | 96.87352 | 36861 ft | 476 kts | 127° |
| 2026-04-28 05:43 | 3.18840 | 96.92576 | 36860 ft | 477 kts | 127° |
| 2026-04-28 05:44 | 3.14753 | 96.97802 | 36862 ft | 477 kts | 127° |
| 2026-04-28 05:44 | 3.10686 | 97.03000 | 36862 ft | 478 kts | 127° |
| 2026-04-28 05:45 | 3.06560 | 97.08273 | 36860 ft | 478 kts | 127° |
| 2026-04-28 05:45 | 3.02484 | 97.13482 | 36854 ft | 478 kts | 127° |
| 2026-04-28 05:46 | 2.98382 | 97.18723 | 36855 ft | 478 kts | 127° |
| 2026-04-28 05:46 | 2.94280 | 97.23964 | 36857 ft | 478 kts | 127° |
| 2026-04-28 05:47 | 2.90182 | 97.29199 | 36851 ft | 478 kts | 127° |
| 2026-04-28 05:47 | 2.86086 | 97.34430 | 36852 ft | 478 kts | 127° |
| 2026-04-28 05:48 | 2.81987 | 97.39665 | 36850 ft | 477 kts | 127° |
| 2026-04-28 05:48 | 2.77898 | 97.44886 | 36849 ft | 477 kts | 127° |
| 2026-04-28 05:49 | 2.73804 | 97.50113 | 36848 ft | 477 kts | 127° |
| 2026-04-28 05:49 | 2.69716 | 97.55332 | 36844 ft | 476 kts | 127° |
| 2026-04-28 05:50 | 2.65632 | 97.60545 | 36847 ft | 476 kts | 127° |
| 2026-04-28 05:50 | 2.61551 | 97.65753 | 36843 ft | 476 kts | 127° |
| 2026-04-28 05:51 | 2.57467 | 97.70965 | 36841 ft | 476 kts | 127° |
| 2026-04-28 05:51 | 2.53384 | 97.76174 | 36837 ft | 476 kts | 127° |
| 2026-04-28 05:52 | 2.49304 | 97.81380 | 36841 ft | 475 kts | 127° |
| 2026-04-28 05:52 | 2.45224 | 97.86585 | 36846 ft | 476 kts | 127° |
| 2026-04-28 05:53 | 2.41142 | 97.91791 | 36838 ft | 476 kts | 127° |
| 2026-04-28 05:53 | 2.37058 | 97.96999 | 36844 ft | 476 kts | 127° |
| 2026-04-28 05:54 | 2.32975 | 98.02207 | 36844 ft | 476 kts | 127° |
| 2026-04-28 05:54 | 2.28892 | 98.07414 | 36843 ft | 476 kts | 127° |
| 2026-04-28 05:55 | 2.24810 | 98.12617 | 36849 ft | 475 kts | 127° |
| 2026-04-28 05:55 | 2.20737 | 98.17810 | 36841 ft | 475 kts | 127° |
| 2026-04-28 05:56 | 2.16662 | 98.23004 | 36853 ft | 475 kts | 127° |
| 2026-04-28 05:56 | 2.12612 | 98.28166 | 36848 ft | 474 kts | 127° |
| 2026-04-28 05:57 | 2.08543 | 98.33354 | 36855 ft | 474 kts | 127° |
| 2026-04-28 05:57 | 2.04485 | 98.38525 | 36852 ft | 473 kts | 127° |
| 2026-04-28 05:58 | 2.00420 | 98.43705 | 36850 ft | 473 kts | 127° |
| 2026-04-28 05:58 | 1.96358 | 98.48879 | 36846 ft | 472 kts | 127° |
| 2026-04-28 05:59 | 1.92306 | 98.54043 | 36852 ft | 472 kts | 127° |
| 2026-04-28 05:59 | 1.88255 | 98.59202 | 36842 ft | 471 kts | 127° |
| 2026-04-28 06:00 | 1.84210 | 98.64355 | 36850 ft | 471 kts | 127° |
| 2026-04-28 06:00 | 1.80170 | 98.69501 | 36848 ft | 471 kts | 127° |
| 2026-04-28 06:01 | 1.76127 | 98.74649 | 36840 ft | 470 kts | 127° |
| 2026-04-28 06:01 | 1.72095 | 98.79784 | 36858 ft | 470 kts | 127° |
| 2026-04-28 06:02 | 1.68055 | 98.84930 | 36846 ft | 470 kts | 127° |
| 2026-04-28 06:02 | 1.64018 | 98.90070 | 36854 ft | 470 kts | 127° |
| 2026-04-28 06:03 | 1.59988 | 98.95202 | 36857 ft | 470 kts | 127° |
| 2026-04-28 06:03 | 1.55952 | 99.00339 | 36848 ft | 470 kts | 127° |
| 2026-04-28 06:04 | 1.51919 | 99.05474 | 36857 ft | 470 kts | 127° |
| 2026-04-28 06:04 | 1.47883 | 99.10612 | 36856 ft | 470 kts | 127° |
| 2026-04-28 06:05 | 1.43846 | 99.15752 | 36844 ft | 470 kts | 127° |
| 2026-04-28 06:05 | 1.39805 | 99.20892 | 36850 ft | 470 kts | 127° |
| 2026-04-28 06:06 | 1.35768 | 99.26030 | 36858 ft | 469 kts | 127° |
| 2026-04-28 06:06 | 1.31739 | 99.31158 | 36857 ft | 469 kts | 127° |
| 2026-04-28 06:07 | 1.27734 | 99.36256 | 36857 ft | 469 kts | 127° |
| 2026-04-28 06:07 | 1.23702 | 99.41387 | 36846 ft | 469 kts | 127° |
| 2026-04-28 06:08 | 1.19676 | 99.46508 | 36862 ft | 469 kts | 127° |
| 2026-04-28 06:08 | 1.15648 | 99.51633 | 36853 ft | 468 kts | 127° |
| 2026-04-28 06:09 | 1.11627 | 99.56749 | 36857 ft | 468 kts | 127° |
| 2026-04-28 06:09 | 1.07600 | 99.61872 | 36861 ft | 469 kts | 127° |
| 2026-04-28 06:10 | 1.03576 | 99.66992 | 36866 ft | 469 kts | 127° |
| 2026-04-28 06:10 | 0.99536 | 99.72132 | 36863 ft | 470 kts | 127° |
| 2026-04-28 06:11 | 0.95500 | 99.77265 | 36865 ft | 470 kts | 127° |
| 2026-04-28 06:11 | 0.91456 | 99.82408 | 36862 ft | 470 kts | 127° |
| 2026-04-28 06:12 | 0.87412 | 99.87553 | 36869 ft | 470 kts | 127° |
| 2026-04-28 06:12 | 0.84053 | 99.91825 | 36870 ft | 471 kts | 127° |
| 2026-04-28 06:13 | 0.79328 | 99.97834 | 36861 ft | 471 kts | 127° |
| 2026-04-28 06:13 | 0.75965 | 100.02111 | 36878 ft | 470 kts | 127° |
| 2026-04-28 06:14 | 0.71920 | 100.07255 | 36859 ft | 471 kts | 128° |
| 2026-04-28 06:14 | 0.67876 | 100.12398 | 36857 ft | 471 kts | 127° |
| 2026-04-28 06:15 | 0.63826 | 100.17548 | 36856 ft | 471 kts | 127° |
| 2026-04-28 06:15 | 0.59093 | 100.23567 | 36849 ft | 471 kts | 127° |
| 2026-04-28 06:16 | 0.55728 | 100.27847 | 36849 ft | 471 kts | 127° |
| 2026-04-28 06:16 | 0.51674 | 100.33001 | 36847 ft | 471 kts | 127° |
| 2026-04-28 06:17 | 0.47626 | 100.38149 | 36845 ft | 471 kts | 127° |
| 2026-04-28 06:18 | 0.41554 | 100.45870 | 36842 ft | 471 kts | 128° |
| 2026-04-28 06:18 | 0.37498 | 100.51026 | 36843 ft | 471 kts | 127° |
| 2026-04-28 06:19 | 0.33445 | 100.56180 | 36839 ft | 472 kts | 127° |
| 2026-04-28 06:19 | 0.29395 | 100.61330 | 36841 ft | 472 kts | 127° |
| 2026-04-28 06:20 | 0.25338 | 100.66487 | 36843 ft | 471 kts | 127° |
| 2026-04-28 06:20 | 0.21288 | 100.71637 | 36831 ft | 471 kts | 127° |
| 2026-04-28 06:21 | 0.17236 | 100.76789 | 36836 ft | 471 kts | 127° |
| 2026-04-28 06:21 | 0.13186 | 100.81938 | 36836 ft | 472 kts | 127° |
| 2026-04-28 06:22 | 0.09133 | 100.87091 | 36836 ft | 472 kts | 127° |
| 2026-04-28 06:22 | 0.05078 | 100.92245 | 36830 ft | 472 kts | 127° |
| 2026-04-28 06:23 | 0.01019 | 100.97406 | 36824 ft | 472 kts | 127° |
| 2026-04-28 06:23 | -0.03012 | 101.02532 | 36828 ft | 472 kts | 127° |
| 2026-04-28 06:24 | -0.07073 | 101.07695 | 36826 ft | 472 kts | 127° |
| 2026-04-28 06:24 | -0.11135 | 101.12859 | 36823 ft | 473 kts | 127° |
| 2026-04-28 06:25 | -0.15195 | 101.18021 | 36825 ft | 473 kts | 127° |
| 2026-04-28 06:25 | -0.19259 | 101.23187 | 36826 ft | 473 kts | 127° |
| 2026-04-28 06:26 | -0.23318 | 101.28348 | 36821 ft | 473 kts | 127° |
| 2026-04-28 06:26 | -0.27384 | 101.33517 | 36824 ft | 473 kts | 127° |
| 2026-04-28 06:27 | -0.31444 | 101.38679 | 36823 ft | 473 kts | 127° |
| 2026-04-28 06:27 | -0.35505 | 101.43843 | 36821 ft | 472 kts | 127° |
| 2026-04-28 06:28 | -0.39566 | 101.49006 | 36820 ft | 472 kts | 127° |
| 2026-04-28 06:28 | -0.43622 | 101.54164 | 36819 ft | 472 kts | 127° |
| 2026-04-28 06:29 | -0.47678 | 101.59322 | 36821 ft | 472 kts | 127° |
| 2026-04-28 06:29 | -0.51738 | 101.64483 | 36818 ft | 472 kts | 127° |
| 2026-04-28 06:30 | -0.55796 | 101.69643 | 36818 ft | 472 kts | 127° |
| 2026-04-28 06:30 | -0.59856 | 101.74807 | 36820 ft | 472 kts | 127° |
| 2026-04-28 06:31 | -0.63916 | 101.79969 | 36816 ft | 472 kts | 127° |
| 2026-04-28 06:31 | -0.67973 | 101.85129 | 36816 ft | 472 kts | 127° |
| 2026-04-28 06:32 | -0.72033 | 101.90292 | 36818 ft | 472 kts | 127° |
| 2026-04-28 06:32 | -0.76094 | 101.95456 | 36815 ft | 472 kts | 127° |
| 2026-04-28 06:33 | -0.80149 | 102.00614 | 36817 ft | 472 kts | 127° |
| 2026-04-28 06:33 | -0.84209 | 102.05777 | 36820 ft | 472 kts | 127° |
| 2026-04-28 06:34 | -0.88267 | 102.10939 | 36818 ft | 472 kts | 127° |
| 2026-04-28 06:34 | -0.92326 | 102.16102 | 36817 ft | 472 kts | 127° |
| 2026-04-28 06:35 | -0.96386 | 102.21266 | 36819 ft | 472 kts | 127° |
| 2026-04-28 06:35 | -1.00441 | 102.26424 | 36821 ft | 472 kts | 127° |
| 2026-04-28 06:36 | -1.04501 | 102.31589 | 36819 ft | 472 kts | 127° |
| 2026-04-28 06:36 | -1.08559 | 102.36752 | 36822 ft | 472 kts | 127° |
| 2026-04-28 06:37 | -1.12612 | 102.41909 | 36824 ft | 472 kts | 127° |
| 2026-04-28 06:37 | -1.16666 | 102.47065 | 36823 ft | 472 kts | 127° |
| 2026-04-28 06:38 | -1.20717 | 102.52222 | 36822 ft | 472 kts | 127° |
| 2026-04-28 06:38 | -1.24773 | 102.57381 | 36829 ft | 471 kts | 127° |
| 2026-04-28 06:39 | -1.28823 | 102.62535 | 36824 ft | 471 kts | 127° |
| 2026-04-28 06:39 | -1.32874 | 102.67690 | 36827 ft | 471 kts | 127° |
| 2026-04-28 06:40 | -1.36900 | 102.72814 | 36818 ft | 472 kts | 127° |
| 2026-04-28 06:40 | -1.40955 | 102.77975 | 36821 ft | 472 kts | 127° |
| 2026-04-28 06:41 | -1.45002 | 102.83125 | 36821 ft | 472 kts | 127° |
| 2026-04-28 06:41 | -1.49065 | 102.88298 | 36823 ft | 472 kts | 127° |
| 2026-04-28 06:42 | -1.53118 | 102.93458 | 36819 ft | 472 kts | 127° |
| 2026-04-28 06:42 | -1.57178 | 102.98626 | 36817 ft | 473 kts | 127° |
| 2026-04-28 06:43 | -1.61238 | 103.03796 | 36818 ft | 473 kts | 127° |
| 2026-04-28 06:43 | -1.65300 | 103.08966 | 36818 ft | 473 kts | 127° |
| 2026-04-28 06:44 | -1.69362 | 103.14139 | 36819 ft | 473 kts | 127° |
| 2026-04-28 06:44 | -1.73428 | 103.19318 | 36819 ft | 474 kts | 127° |
| 2026-04-28 06:45 | -1.77494 | 103.24496 | 36818 ft | 474 kts | 127° |
| 2026-04-28 06:45 | -1.81565 | 103.29680 | 36820 ft | 474 kts | 127° |
| 2026-04-28 06:46 | -1.85636 | 103.34865 | 36820 ft | 474 kts | 127° |
| 2026-04-28 06:46 | -1.89710 | 103.40055 | 36818 ft | 474 kts | 127° |
| 2026-04-28 06:47 | -1.93781 | 103.45242 | 36819 ft | 474 kts | 127° |
| 2026-04-28 06:47 | -1.97853 | 103.50430 | 36816 ft | 474 kts | 127° |
| 2026-04-28 06:48 | -2.01924 | 103.55617 | 36820 ft | 474 kts | 127° |
| 2026-04-28 06:48 | -2.05995 | 103.60805 | 36818 ft | 474 kts | 127° |
| 2026-04-28 06:49 | -2.10063 | 103.65989 | 36814 ft | 474 kts | 127° |
| 2026-04-28 06:49 | -2.14136 | 103.71180 | 36816 ft | 474 kts | 127° |
| 2026-04-28 06:50 | -2.18204 | 103.76365 | 36814 ft | 474 kts | 127° |
| 2026-04-28 06:50 | -2.22271 | 103.81550 | 36814 ft | 474 kts | 127° |
| 2026-04-28 06:51 | -2.26335 | 103.86732 | 36814 ft | 474 kts | 127° |
| 2026-04-28 06:51 | -2.30402 | 103.91917 | 36812 ft | 474 kts | 127° |
| 2026-04-28 06:52 | -2.34470 | 103.97105 | 36815 ft | 474 kts | 127° |
| 2026-04-28 06:52 | -2.38541 | 104.02297 | 36813 ft | 474 kts | 127° |
| 2026-04-28 06:53 | -2.42613 | 104.07490 | 36814 ft | 475 kts | 127° |
| 2026-04-28 06:53 | -2.46685 | 104.12685 | 36813 ft | 475 kts | 127° |
| 2026-04-28 06:54 | -2.50758 | 104.17880 | 36813 ft | 475 kts | 127° |
| 2026-04-28 06:54 | -2.54836 | 104.23084 | 36814 ft | 475 kts | 127° |
| 2026-04-28 06:55 | -2.58909 | 104.28281 | 36810 ft | 475 kts | 127° |
| 2026-04-28 06:55 | -2.62963 | 104.33455 | 36811 ft | 476 kts | 127° |
| 2026-04-28 06:56 | -2.67041 | 104.38660 | 36810 ft | 476 kts | 127° |
| 2026-04-28 06:56 | -2.71123 | 104.43871 | 36807 ft | 476 kts | 127° |
| 2026-04-28 06:57 | -2.75207 | 104.49085 | 36806 ft | 476 kts | 127° |
| 2026-04-28 06:57 | -2.79292 | 104.54302 | 36803 ft | 476 kts | 127° |
| 2026-04-28 06:58 | -2.83375 | 104.59517 | 36801 ft | 476 kts | 127° |
| 2026-04-28 06:58 | -2.86799 | 104.63891 | 36804 ft | 476 kts | 127° |
| 2026-04-28 06:59 | -2.90927 | 104.69014 | 36800 ft | 476 kts | 129° |
| 2026-04-28 06:59 | -2.95229 | 104.74054 | 36804 ft | 476 kts | 130° |
| 2026-04-28 07:00 | -2.99532 | 104.79087 | 36801 ft | 476 kts | 129° |
| 2026-04-28 07:00 | -3.03824 | 104.84151 | 36803 ft | 476 kts | 129° |
| 2026-04-28 07:01 | -3.08096 | 104.89214 | 36801 ft | 476 kts | 129° |
| 2026-04-28 07:01 | -3.12368 | 104.94281 | 36803 ft | 476 kts | 129° |
| 2026-04-28 07:02 | -3.16640 | 104.99347 | 36799 ft | 476 kts | 129° |
| 2026-04-28 07:02 | -3.20910 | 105.04409 | 36802 ft | 476 kts | 129° |
| 2026-04-28 07:03 | -3.25174 | 105.09465 | 36801 ft | 475 kts | 129° |
| 2026-04-28 07:03 | -3.29441 | 105.14525 | 36800 ft | 475 kts | 129° |
| 2026-04-28 07:04 | -3.33696 | 105.19571 | 36801 ft | 475 kts | 129° |
| 2026-04-28 07:04 | -3.37952 | 105.24620 | 36804 ft | 474 kts | 129° |
| 2026-04-28 07:05 | -3.42204 | 105.29666 | 36804 ft | 474 kts | 129° |
| 2026-04-28 07:05 | -3.46452 | 105.34707 | 36800 ft | 474 kts | 129° |
| 2026-04-28 07:06 | -3.50697 | 105.39745 | 36800 ft | 474 kts | 129° |
| 2026-04-28 07:06 | -3.54945 | 105.44788 | 36801 ft | 473 kts | 129° |
| 2026-04-28 07:07 | -3.59188 | 105.49827 | 36800 ft | 473 kts | 129° |
| 2026-04-28 07:07 | -3.63426 | 105.54858 | 36803 ft | 473 kts | 129° |
| 2026-04-28 07:08 | -3.67670 | 105.59895 | 36804 ft | 473 kts | 129° |
| 2026-04-28 07:08 | -3.71905 | 105.64924 | 36807 ft | 472 kts | 129° |
| 2026-04-28 07:09 | -3.76141 | 105.69957 | 36804 ft | 472 kts | 129° |
| 2026-04-28 07:09 | -3.80344 | 105.74951 | 36806 ft | 472 kts | 129° |
| 2026-04-28 07:10 | -3.84576 | 105.79980 | 36805 ft | 472 kts | 129° |
| 2026-04-28 07:10 | -3.88804 | 105.85007 | 36808 ft | 472 kts | 129° |
| 2026-04-28 07:11 | -3.93032 | 105.90034 | 36808 ft | 472 kts | 129° |
| 2026-04-28 07:11 | -3.97262 | 105.95064 | 36810 ft | 472 kts | 129° |
| 2026-04-28 07:12 | -4.01490 | 106.00092 | 36813 ft | 472 kts | 129° |
| 2026-04-28 07:12 | -4.05988 | 106.04863 | 36811 ft | 472 kts | 141° |
| 2026-04-28 07:13 | -4.11338 | 106.08689 | 36812 ft | 473 kts | 145° |
| 2026-04-28 07:13 | -4.16776 | 106.12398 | 36819 ft | 473 kts | 144° |
| 2026-04-28 07:14 | -4.22165 | 106.16190 | 36813 ft | 473 kts | 144° |
| 2026-04-28 07:14 | -4.27512 | 106.20032 | 36814 ft | 474 kts | 143° |
| 2026-04-28 07:15 | -4.32845 | 106.23882 | 36767 ft | 466 kts | 143° |
| 2026-04-28 07:15 | -4.35439 | 106.25752 | 36466 ft | 453 kts | 143° |
| 2026-04-28 07:15 | -4.37994 | 106.27595 | 36053 ft | 453 kts | 143° |
| 2026-04-28 07:15 | -4.40553 | 106.29439 | 35703 ft | 451 kts | 143° |
| 2026-04-28 07:16 | -4.43095 | 106.31271 | 35373 ft | 449 kts | 143° |
| 2026-04-28 07:16 | -4.45629 | 106.33097 | 35040 ft | 447 kts | 143° |
| 2026-04-28 07:16 | -4.48147 | 106.34911 | 34714 ft | 446 kts | 143° |
| 2026-04-28 07:16 | -4.50662 | 106.36723 | 34362 ft | 445 kts | 143° |
| 2026-04-28 07:17 | -4.53171 | 106.38532 | 34022 ft | 444 kts | 143° |
| 2026-04-28 07:17 | -4.55676 | 106.40337 | 33677 ft | 443 kts | 142° |
| 2026-04-28 07:17 | -4.58171 | 106.42136 | 33344 ft | 441 kts | 142° |
| 2026-04-28 07:17 | -4.60649 | 106.43923 | 33038 ft | 438 kts | 142° |
| 2026-04-28 07:18 | -4.63118 | 106.45703 | 32728 ft | 435 kts | 142° |
| 2026-04-28 07:18 | -4.65572 | 106.47473 | 32421 ft | 433 kts | 142° |
| 2026-04-28 07:18 | -4.68007 | 106.49229 | 32104 ft | 431 kts | 142° |
| 2026-04-28 07:18 | -4.70439 | 106.50983 | 31792 ft | 429 kts | 142° |
| 2026-04-28 07:19 | -4.72858 | 106.52728 | 31500 ft | 427 kts | 143° |
| 2026-04-28 07:19 | -4.75262 | 106.54462 | 31200 ft | 424 kts | 143° |
| 2026-04-28 07:19 | -4.77612 | 106.56158 | 30865 ft | 420 kts | 143° |
| 2026-04-28 07:19 | -4.79976 | 106.57863 | 30452 ft | 418 kts | 143° |
| 2026-04-28 07:20 | -4.82332 | 106.59564 | 30021 ft | 416 kts | 143° |
| 2026-04-28 07:20 | -4.84676 | 106.61255 | 29549 ft | 414 kts | 143° |
| 2026-04-28 07:20 | -4.87046 | 106.62863 | 29113 ft | 410 kts | 149° |
| 2026-04-28 07:20 | -4.89593 | 106.64135 | 28701 ft | 407 kts | 154° |
| 2026-04-28 07:21 | -4.92180 | 106.65266 | 28289 ft | 403 kts | 156° |
| 2026-04-28 07:21 | -4.94752 | 106.66362 | 27872 ft | 400 kts | 156° |
| 2026-04-28 07:21 | -4.97296 | 106.67464 | 27463 ft | 397 kts | 155° |
| 2026-04-28 07:22 | -5.02298 | 106.69701 | 26674 ft | 391 kts | 155° |
| 2026-04-28 07:22 | -5.04765 | 106.70824 | 26289 ft | 388 kts | 155° |
| 2026-04-28 07:22 | -5.07210 | 106.71943 | 25905 ft | 385 kts | 155° |
| 2026-04-28 07:22 | -5.09637 | 106.73054 | 25530 ft | 382 kts | 155° |
| 2026-04-28 07:23 | -5.12046 | 106.74156 | 25156 ft | 379 kts | 155° |
| 2026-04-28 07:23 | -5.14434 | 106.75249 | 24792 ft | 377 kts | 155° |
| 2026-04-28 07:23 | -5.16813 | 106.76336 | 24429 ft | 374 kts | 155° |
| 2026-04-28 07:23 | -5.19178 | 106.77413 | 24080 ft | 372 kts | 155° |
| 2026-04-28 07:24 | -5.21525 | 106.78477 | 23728 ft | 369 kts | 156° |
| 2026-04-28 07:24 | -5.23832 | 106.79520 | 23375 ft | 367 kts | 156° |
| 2026-04-28 07:24 | -5.26150 | 106.80568 | 22968 ft | 365 kts | 156° |
| 2026-04-28 07:24 | -5.28457 | 106.81611 | 22556 ft | 362 kts | 156° |
| 2026-04-28 07:25 | -5.30745 | 106.82647 | 22141 ft | 361 kts | 155° |
| 2026-04-28 07:25 | -5.33061 | 106.83697 | 21727 ft | 359 kts | 155° |
| 2026-04-28 07:25 | -5.35329 | 106.84724 | 21323 ft | 357 kts | 155° |
| 2026-04-28 07:25 | -5.37556 | 106.85734 | 20956 ft | 355 kts | 155° |
| 2026-04-28 07:26 | -5.39801 | 106.86751 | 20823 ft | 357 kts | 155° |
| 2026-04-28 07:26 | -5.42067 | 106.87778 | 20826 ft | 358 kts | 155° |
| 2026-04-28 07:26 | -5.44330 | 106.88803 | 20819 ft | 356 kts | 155° |
| 2026-04-28 07:26 | -5.46659 | 106.89549 | 20807 ft | 352 kts | 173° |
| 2026-04-28 07:27 | -5.49112 | 106.89481 | 20772 ft | 357 kts | 190° |
| 2026-04-28 07:27 | -5.51526 | 106.88734 | 20116 ft | 369 kts | 199° |
| 2026-04-28 07:27 | -5.53926 | 106.87790 | 19532 ft | 369 kts | 201° |
| 2026-04-28 07:27 | -5.56276 | 106.86832 | 19035 ft | 358 kts | 201° |
| 2026-04-28 07:28 | -5.58543 | 106.85912 | 18573 ft | 346 kts | 200° |
| 2026-04-28 07:28 | -5.60746 | 106.85032 | 18124 ft | 337 kts | 200° |
| 2026-04-28 07:28 | -5.62918 | 106.84177 | 17647 ft | 337 kts | 200° |
| 2026-04-28 07:28 | -5.65131 | 106.83316 | 17199 ft | 344 kts | 200° |
| 2026-04-28 07:29 | -5.67378 | 106.82445 | 16727 ft | 347 kts | 200° |
| 2026-04-28 07:29 | -5.69633 | 106.81574 | 16275 ft | 347 kts | 200° |
| 2026-04-28 07:29 | -5.71887 | 106.80704 | 15818 ft | 348 kts | 200° |
| 2026-04-28 07:29 | -5.74147 | 106.79832 | 15368 ft | 348 kts | 200° |
| 2026-04-28 07:30 | -5.76381 | 106.78970 | 14887 ft | 338 kts | 200° |
| 2026-04-28 07:30 | -5.78532 | 106.78139 | 14465 ft | 326 kts | 200° |
| 2026-04-28 07:30 | -5.80609 | 106.77337 | 14037 ft | 315 kts | 200° |
| 2026-04-28 07:30 | -5.82625 | 106.76559 | 13599 ft | 306 kts | 199° |
| 2026-04-28 07:31 | -5.84609 | 106.75793 | 13152 ft | 305 kts | 201° |
| 2026-04-28 07:31 | -5.86384 | 106.74676 | 12824 ft | 302 kts | 225° |
| 2026-04-28 07:31 | -5.87559 | 106.72944 | 12741 ft | 301 kts | 245° |
| 2026-04-28 07:31 | -5.88352 | 106.71012 | 12520 ft | 295 kts | 248° |
| 2026-04-28 07:32 | -5.89083 | 106.69116 | 12043 ft | 288 kts | 248° |
| 2026-04-28 07:32 | -5.89807 | 106.67235 | 11494 ft | 292 kts | 248° |
| 2026-04-28 07:32 | -5.90547 | 106.65338 | 11187 ft | 291 kts | 248° |
| 2026-04-28 07:32 | -5.91291 | 106.63454 | 10930 ft | 288 kts | 248° |
| 2026-04-28 07:33 | -5.92029 | 106.61601 | 10694 ft | 285 kts | 247° |
| 2026-04-28 07:33 | -5.92761 | 106.59769 | 10491 ft | 278 kts | 247° |
| 2026-04-28 07:33 | -5.93464 | 106.58013 | 10295 ft | 264 kts | 247° |
| 2026-04-28 07:33 | -5.94137 | 106.56355 | 9978 ft | 256 kts | 247° |
| 2026-04-28 07:34 | -5.94800 | 106.54730 | 9745 ft | 248 kts | 247° |
| 2026-04-28 07:34 | -5.95451 | 106.53136 | 9487 ft | 245 kts | 247° |
| 2026-04-28 07:34 | -5.96077 | 106.51602 | 9462 ft | 231 kts | 247° |
| 2026-04-28 07:34 | -5.96686 | 106.50110 | 9452 ft | 231 kts | 247° |
| 2026-04-28 07:35 | -5.97302 | 106.48600 | 9379 ft | 237 kts | 247° |
| 2026-04-28 07:35 | -5.97933 | 106.47052 | 9172 ft | 242 kts | 247° |
| 2026-04-28 07:35 | -5.98572 | 106.45486 | 8918 ft | 241 kts | 247° |
| 2026-04-28 07:35 | -5.99198 | 106.43948 | 8695 ft | 235 kts | 247° |
| 2026-04-28 07:36 | -5.99809 | 106.42448 | 8463 ft | 229 kts | 247° |
| 2026-04-28 07:36 | -6.00404 | 106.40986 | 8271 ft | 223 kts | 247° |
| 2026-04-28 07:36 | -6.00989 | 106.39549 | 7968 ft | 222 kts | 247° |
| 2026-04-28 07:36 | -6.01609 | 106.38142 | 7655 ft | 219 kts | 236° |
| 2026-04-28 07:37 | -6.02667 | 106.37088 | 7361 ft | 211 kts | 213° |
| 2026-04-28 07:37 | -6.03979 | 106.36559 | 7006 ft | 201 kts | 186° |
| 2026-04-28 07:37 | -6.05347 | 106.36367 | 6744 ft | 196 kts | 185° |
| 2026-04-28 07:37 | -6.06691 | 106.36174 | 6450 ft | 193 kts | 186° |
| 2026-04-28 07:38 | -6.07999 | 106.35917 | 6163 ft | 191 kts | 190° |
| 2026-04-28 07:38 | -6.09294 | 106.35611 | 5810 ft | 190 kts | 191° |
| 2026-04-28 07:38 | -6.10580 | 106.35307 | 5454 ft | 190 kts | 191° |
| 2026-04-28 07:38 | -6.11872 | 106.35000 | 5157 ft | 191 kts | 191° |
| 2026-04-28 07:39 | -6.13126 | 106.34768 | 5021 ft | 175 kts | 173° |
| 2026-04-28 07:39 | -6.14319 | 106.35081 | 5056 ft | 187 kts | 160° |
| 2026-04-28 07:39 | -6.15594 | 106.35485 | 5055 ft | 193 kts | 160° |
| 2026-04-28 07:39 | -6.16701 | 106.36190 | 4629 ft | 190 kts | 126° |
| 2026-04-28 07:40 | -6.17439 | 106.37265 | 4358 ft | 186 kts | 123° |
| 2026-04-28 07:40 | -6.18124 | 106.38345 | 4099 ft | 182 kts | 116° |
| 2026-04-28 07:40 | -6.18604 | 106.39502 | 3868 ft | 177 kts | 107° |
| 2026-04-28 07:40 | -6.18853 | 106.40692 | 3631 ft | 171 kts | 96° |
| 2026-04-28 07:41 | -6.18920 | 106.41858 | 3390 ft | 164 kts | 90° |
| 2026-04-28 07:41 | -6.18877 | 106.42995 | 3170 ft | 165 kts | 85° |
| 2026-04-28 07:41 | -6.18769 | 106.44156 | 2956 ft | 169 kts | 83° |
| 2026-04-28 07:41 | -6.18619 | 106.45330 | 2710 ft | 169 kts | 82° |
| 2026-04-28 07:42 | -6.18449 | 106.46488 | 2467 ft | 167 kts | 80° |
| 2026-04-28 07:42 | -6.18266 | 106.47639 | 2230 ft | 167 kts | 79° |
| 2026-04-28 07:42 | -6.18006 | 106.48743 | 2075 ft | 157 kts | 73° |
| 2026-04-28 07:42 | -6.17660 | 106.49792 | 2029 ft | 159 kts | 69° |
| 2026-04-28 07:43 | -6.17276 | 106.50816 | 1994 ft | 153 kts | 68° |
| 2026-04-28 07:43 | -6.16901 | 106.51791 | 1992 ft | 147 kts | 67° |
| 2026-04-28 07:43 | -6.16528 | 106.52725 | 1986 ft | 138 kts | 67° |
| 2026-04-28 07:43 | -6.16180 | 106.53607 | 1930 ft | 135 kts | 66° |
| 2026-04-28 07:44 | -6.15824 | 106.54498 | 1864 ft | 137 kts | 66° |
| 2026-04-28 07:44 | -6.15469 | 106.55399 | 1799 ft | 143 kts | 67° |
| 2026-04-28 07:44 | -6.15097 | 106.56326 | 1620 ft | 143 kts | 66° |
| 2026-04-28 07:44 | -6.14735 | 106.57257 | 1309 ft | 136 kts | 65° |
| 2026-04-28 07:45 | -6.14394 | 106.58094 | 1108 ft | 129 kts | 66° |
| 2026-04-28 07:45 | -6.14050 | 106.58972 | 1069 ft | 139 kts | 68° |
| 2026-04-28 07:45 | -6.13684 | 106.59901 | 906 ft | 145 kts | 66° |
| 2026-04-28 07:45 | -6.13307 | 106.60820 | 675 ft | 138 kts | 68° |
| 2026-04-28 07:46 | -6.12970 | 106.61713 | 522 ft | 135 kts | 66° |
| 2026-04-28 07:46 | -6.12620 | 106.62590 | 371 ft | 137 kts | 65° |
| 2026-04-28 07:46 | -6.12258 | 106.63480 | 175 ft | 136 kts | 65° |
| 2026-04-28 07:46 | -6.11902 | 106.64354 | 63 ft | 135 kts | 66° |
| 2026-04-28 07:47 | -6.11574 | 106.65175 | 41 ft | 107 kts | 68° |
| 2026-04-28 07:47 | -6.11368 | 106.65698 | 37 ft | 54 kts | 68° |
| 2026-04-28 07:47 | -6.11281 | 106.65916 | 37 ft | 20 kts | 69° |
| 2026-04-28 07:47 | -6.11249 | 106.66005 | 37 ft | 21 kts | 79° |
| 2026-04-28 07:48 | -6.11247 | 106.66113 | 36 ft | 5 kts | 94° |
| 2026-04-28 07:48 | -6.11249 | 106.66137 | 36 ft | 6 kts | 94° |
| 2026-04-28 07:48 | -6.11254 | 106.66177 | 36 ft | 6 kts | 98° |
| 2026-04-28 07:48 | -6.11261 | 106.66220 | 37 ft | 6 kts | 103° |
| 2026-04-28 07:49 | -6.11285 | 106.66257 | 37 ft | 7 kts | 143° |
| 2026-04-28 07:49 | -6.11330 | 106.66280 | 37 ft | 8 kts | 159° |
| 2026-04-28 07:49 | -6.11384 | 106.66300 | 37 ft | 9 kts | 159° |
| 2026-04-28 07:49 | -6.11445 | 106.66323 | 37 ft | 10 kts | 157° |
| 2026-04-28 07:50 | -6.11510 | 106.66352 | 37 ft | 11 kts | 155° |
| 2026-04-28 07:50 | -6.11578 | 106.66382 | 37 ft | 9 kts | 158° |
| 2026-04-28 07:50 | -6.11633 | 106.66416 | 37 ft | 10 kts | 130° |
| 2026-04-28 07:50 | -6.11637 | 106.66481 | 37 ft | 10 kts | 71° |
| 2026-04-28 07:51 | -6.11616 | 106.66541 | 37 ft | 7 kts | 81° |
| 2026-04-28 07:51 | -6.11640 | 106.66578 | 37 ft | 7 kts | 148° |
| 2026-04-28 07:51 | -6.11672 | 106.66593 | 37 ft | 4 kts | 156° |
| 2026-04-28 07:51 | -6.11695 | 106.66602 | 37 ft | 0 kts | 158° |